Time;durP1;ratioP1;P1;durP2;ratioP2;P2;SDS_P1;SDS_P2;PMS_P1;PMS_P2;Temp;Humidity;BMP_temperature;BMP_pressure;BME280_temperature;BME280_humidity;BME280_pressure;Samples;Min_cycle;Max_cycle;Signal;HPM_P1;HPM_P2
2022/10/19 00:01:01;;;;;;;1999.90;999.90;;;;;;;10.92;100.00;98675.41;4953084;29;20035;-73
2022/10/19 00:03:26;;;;;;;1999.90;999.90;;;;;;;10.86;100.00;98672.97;4954881;29;20035;-73
2022/10/19 00:05:51;;;;;;;1999.90;999.90;;;;;;;10.92;100.00;98671.84;4956794;29;20042;-73
2022/10/19 00:08:17;;;;;;;1999.90;999.90;;;;;;;10.92;100.00;98677.31;4951979;29;20543;-73
2022/10/19 00:10:42;;;;;;;1999.90;999.90;;;;;;;10.86;100.00;98678.44;4952430;29;20046;-73
2022/10/19 00:13:07;;;;;;;1999.90;999.90;;;;;;;10.83;100.00;98673.53;4952993;28;20031;-73
2022/10/19 00:15:36;;;;;;;1999.90;999.90;;;;;;;10.81;100.00;98673.00;4972183;28;20093;-74
2022/10/19 00:18:01;;;;;;;1999.90;999.90;;;;;;;10.92;100.00;98671.84;4985577;28;20038;-73
2022/10/19 00:20:27;;;;;;;1999.90;999.90;;;;;;;10.85;100.00;98666.66;4991314;28;20386;-73
2022/10/19 00:22:52;;;;;;;1999.90;999.90;;;;;;;10.98;100.00;98677.03;4991211;28;20034;-73
2022/10/19 00:25:17;;;;;;;1999.90;999.90;;;;;;;10.98;100.00;98676.19;4992396;28;20065;-73
2022/10/19 00:27:43;;;;;;;1999.90;999.90;;;;;;;10.96;100.00;98676.50;4993041;28;20034;-73
2022/10/19 00:30:08;;;;;;;1999.90;999.90;;;;;;;11.06;100.00;98678.34;4993347;28;20054;-73
2022/10/19 00:32:34;;;;;;;1999.90;999.90;;;;;;;11.15;100.00;98687.63;4991790;28;20110;-73
2022/10/19 00:35:00;;;;;;;1999.90;999.90;;;;;;;11.19;100.00;98688.69;4991611;28;20061;-73
2022/10/19 00:37:26;;;;;;;1999.90;999.90;;;;;;;11.19;100.00;98686.78;4991410;28;20031;-72
2022/10/19 00:39:51;;;;;;;1999.90;999.90;;;;;;;11.26;100.00;98683.72;4990946;28;20038;-72
2022/10/19 00:42:16;;;;;;;1999.90;999.90;;;;;;;11.15;100.00;98676.69;4952356;28;20023;-73
2022/10/19 00:44:41;;;;;;;1999.90;999.90;;;;;;;11.14;100.00;98673.13;4952312;28;20130;-73
2022/10/19 00:47:07;;;;;;;1999.90;999.90;;;;;;;11.12;100.00;98672.56;4952239;29;20042;-73
2022/10/19 00:49:36;;;;;;;1999.90;999.90;;;;;;;11.17;100.00;98679.94;4950899;29;20845;-74
2022/10/19 00:52:12;;;;;;;1999.90;999.90;;;;;;;11.08;100.00;98679.72;4952181;29;20054;-73
2022/10/19 00:54:40;;;;;;;1999.90;999.90;;;;;;;11.07;100.00;98685.47;4952366;29;20404;-73
2022/10/19 00:57:07;;;;;;;1999.90;999.90;;;;;;;11.22;100.00;98688.13;4952481;29;20031;-73
2022/10/19 00:59:33;;;;;;;1999.90;999.90;;;;;;;11.22;100.00;98682.66;4952289;28;20058;-73
2022/10/19 01:02:02;;;;;;;1999.90;999.90;;;;;;;11.25;100.00;98679.34;4955821;28;20477;-73
2022/10/19 01:04:29;;;;;;;1999.90;999.90;;;;;;;11.28;100.00;98671.41;4956061;29;20031;-73
2022/10/19 01:06:56;;;;;;;1999.90;999.90;;;;;;;11.22;100.00;98674.44;4955588;29;20493;-73
2022/10/19 01:09:21;;;;;;;1999.90;999.90;;;;;;;11.26;100.00;98681.00;4958548;28;20086;-73
2022/10/19 01:12:08;;;;;;;1999.90;999.90;;;;;;;11.31;100.00;98674.69;4975444;28;20035;-73
2022/10/19 01:14:54;;;;;;;1999.90;999.90;;;;;;;11.32;100.00;98674.38;4978005;28;20034;-74
2022/10/19 01:17:44;;;;;;;1999.90;999.90;;;;;;;11.29;100.00;98674.94;4978640;28;20035;-73
2022/10/19 01:20:30;;;;;;;1999.90;999.90;;;;;;;11.20;100.00;98669.25;4974937;28;20133;-73
2022/10/19 01:23:23;;;;;;;1999.90;999.90;;;;;;;11.14;100.00;98675.84;4974695;28;20034;-73
2022/10/19 01:26:16;;;;;;;1999.90;999.90;;;;;;;11.14;100.00;98664.91;4974548;28;20089;-73
2022/10/19 01:28:44;;;;;;;1999.90;999.90;;;;;;;11.08;100.00;98659.72;4974571;28;20038;-73
2022/10/19 01:31:48;;;;;;;1999.90;999.90;;;;;;;11.01;100.00;98670.16;4974648;28;20027;-73
2022/10/19 01:34:32;;;;;;;1999.90;999.90;;;;;;;10.98;100.00;98668.00;4977219;28;20082;-73
2022/10/19 01:37:06;;;;;;;1999.90;999.90;;;;;;;10.96;100.00;98662.81;4974596;28;20105;-74
2022/10/19 01:39:39;;;;;;;1999.90;999.90;;;;;;;11.01;100.00;98653.75;4974427;28;20030;-72
2022/10/19 01:42:22;;;;;;;1999.90;999.90;;;;;;;11.09;100.00;98650.41;4974223;28;20031;-73
2022/10/19 01:44:53;;;;;;;1999.90;999.90;;;;;;;11.06;100.00;98650.97;4974127;28;20027;-72
2022/10/19 01:47:24;;;;;;;1999.90;999.90;;;;;;;11.08;100.00;98659.72;4974196;28;20139;-74
2022/10/19 01:50:02;;;;;;;1999.90;999.90;;;;;;;11.05;100.00;98657.56;4974307;28;20046;-73
2022/10/19 01:52:28;;;;;;;1999.90;999.90;;;;;;;11.02;100.00;98656.22;4974114;28;20492;-73
2022/10/19 01:54:57;;;;;;;1999.90;999.90;;;;;;;11.03;100.00;98654.25;4974018;28;20089;-74
2022/10/19 01:57:31;;;;;;;1999.90;999.90;;;;;;;10.99;100.00;98661.44;4973912;28;20445;-73
2022/10/19 01:59:57;;;;;;;1999.90;999.90;;;;;;;10.99;100.00;98661.44;4974119;28;20062;-73
2022/10/19 02:02:25;;;;;;;1999.90;999.90;;;;;;;10.95;100.00;98654.88;4973970;28;20038;-73
2022/10/19 02:04:53;;;;;;;1999.90;999.90;;;;;;;11.07;100.00;98660.81;4974077;28;20046;-73
2022/10/19 02:07:21;;;;;;;1999.90;999.90;;;;;;;11.09;100.00;98666.81;4972397;28;20047;-73
2022/10/19 02:09:47;;;;;;;1999.90;999.90;;;;;;;11.13;100.00;98662.44;4973625;28;20049;-73
2022/10/19 02:12:14;;;;;;;1999.90;999.90;;;;;;;11.09;100.00;98656.69;4974201;28;20031;-74
2022/10/19 02:14:44;;;;;;;1999.90;999.90;;;;;;;11.11;100.00;98656.44;4975359;28;20401;-74
2022/10/19 02:17:13;;;;;;;1999.90;999.90;;;;;;;11.14;100.00;98653.13;4975408;28;20377;-73
2022/10/19 02:19:39;;;;;;;1999.90;999.90;;;;;;;11.25;100.00;98655.53;4974666;28;20072;-73
2022/10/19 02:22:05;;;;;;;1999.90;999.90;;;;;;;11.20;100.00;98646.53;4973729;28;20484;-74
2022/10/19 02:24:31;;;;;;;1999.90;999.90;;;;;;;11.25;100.00;98649.22;4973700;28;20019;-73
2022/10/19 02:26:56;;;;;;;1999.90;999.90;;;;;;;11.29;100.00;98651.13;4973571;28;20031;-73
2022/10/19 02:29:22;;;;;;;1999.90;999.90;;;;;;;11.33;100.00;98643.16;4973312;28;20030;-73
2022/10/19 02:31:47;;;;;;;1999.90;999.90;;;;;;;11.32;100.00;98643.44;4973503;28;20031;-73
2022/10/19 02:34:13;;;;;;;1999.90;999.90;;;;;;;11.29;100.00;98644.81;4973491;28;20030;-74
2022/10/19 02:36:39;;;;;;;1999.90;999.90;;;;;;;11.32;100.00;98644.25;4973686;28;20027;-74
2022/10/19 02:39:06;;;;;;;1999.90;999.90;;;;;;;11.27;100.00;98641.56;4973363;28;20027;-74
2022/10/19 02:41:41;;;;;;;1999.90;999.90;;;;;;;11.26;100.00;98643.47;4973318;28;20023;-73
2022/10/19 02:44:13;;;;;;;1999.90;999.90;;;;;;;11.23;100.00;98635.84;4973414;28;20539;-74
2022/10/19 02:47:15;;;;;;;1999.90;999.90;;;;;;;11.27;100.00;98638.81;4973420;28;20043;-74
2022/10/19 02:49:42;;;;;;;1999.90;999.90;;;;;;;11.29;100.00;98637.44;4973093;28;20080;-73
2022/10/19 02:52:10;;;;;;;1999.90;999.90;;;;;;;11.22;100.00;98644.31;4973040;28;20365;-72
2022/10/19 02:54:36;;;;;;;1999.90;999.90;;;;;;;11.15;100.00;98639.16;4973105;28;20027;-73
2022/10/19 02:57:16;;;;;;;1999.90;999.90;;;;;;;11.19;100.00;98639.41;4972798;28;20122;-74
2022/10/19 02:59:41;;;;;;;1999.90;999.90;;;;;;;11.16;100.00;98639.97;4972849;28;20027;-74
2022/10/19 03:02:07;;;;;;;1999.90;999.90;;;;;;;11.13;100.00;98638.63;4972883;28;20101;-74
2022/10/19 03:04:32;;;;;;;1999.90;999.90;;;;;;;11.05;100.00;98633.75;4972467;28;20090;-73
2022/10/19 03:06:57;;;;;;;1999.90;999.90;;;;;;;11.08;100.00;98646.88;4973112;28;20027;-74
2022/10/19 03:09:23;;;;;;;1999.90;999.90;;;;;;;11.16;100.00;98642.72;4972682;28;20027;-73
2022/10/19 03:11:48;;;;;;;1999.90;999.90;;;;;;;11.14;100.00;98633.97;4972596;28;20034;-73
2022/10/19 03:14:13;;;;;;;1999.90;999.90;;;;;;;11.15;100.00;98628.19;4972826;28;20046;-72
2022/10/19 03:16:39;;;;;;;1999.90;999.90;;;;;;;11.01;100.00;98638.13;4972705;28;20401;-73
2022/10/19 03:19:05;;;;;;;1999.90;999.90;;;;;;;11.00;100.00;98641.13;4971380;28;20063;-73
2022/10/19 03:21:32;;;;;;;1999.90;999.90;;;;;;;11.08;100.00;98644.13;4972458;28;20019;-73
2022/10/19 03:23:59;;;;;;;1999.90;999.90;;;;;;;11.07;100.00;98636.19;4971030;28;20023;-73
2022/10/19 03:26:24;;;;;;;1999.90;999.90;;;;;;;11.11;100.00;98626.31;4978584;28;20503;-73
2022/10/19 03:28:50;;;;;;;1999.90;999.90;;;;;;;10.95;100.00;98628.31;4975786;28;20035;-74
2022/10/19 03:31:15;;;;;;;1999.90;999.90;;;;;;;10.99;100.00;98640.34;4975131;28;20440;-73
2022/10/19 03:33:40;;;;;;;1999.90;999.90;;;;;;;11.03;100.00;98646.88;4972432;28;20030;-73
2022/10/19 03:36:25;;;;;;;1999.90;999.90;;;;;;;11.11;100.00;98648.22;4972724;28;20049;-73
2022/10/19 03:38:51;;;;;;;1999.90;999.90;;;;;;;11.13;100.00;98657.78;4972124;28;20492;-73
2022/10/19 03:41:18;;;;;;;1999.90;999.90;;;;;;;11.05;100.00;98657.56;4971179;28;20027;-73
2022/10/19 03:43:44;;;;;;;1999.90;999.90;;;;;;;11.08;100.00;98649.59;4972485;28;20878;-73
2022/10/19 03:46:09;;;;;;;1999.90;999.90;;;;;;;11.04;100.00;98653.19;4985844;28;20062;-74
2022/10/19 03:48:35;;;;;;;1999.90;999.90;;;;;;;11.06;100.00;98651.78;4991532;28;20034;-74
2022/10/19 03:51:04;;;;;;;1999.90;999.90;;;;;;;10.99;100.00;98634.06;4991361;28;20025;-73
2022/10/19 03:53:30;;;;;;;1999.90;999.90;;;;;;;11.07;100.00;98650.69;4991848;28;20473;-73
2022/10/19 03:56:07;;;;;;;1999.90;999.90;;;;;;;11.18;100.00;98640.53;4991565;28;20499;-73
2022/10/19 03:58:34;;;;;;;1999.90;999.90;;;;;;;11.21;100.00;98639.97;4991033;28;20026;-73
2022/10/19 04:01:00;;;;;;;1999.90;999.90;;;;;;;11.22;100.00;98647.06;4991580;28;20396;-72
2022/10/19 04:03:26;;;;;;;1999.90;999.90;;;;;;;11.25;100.00;98647.31;4991043;28;20029;-73
2022/10/19 04:05:51;;;;;;;1999.90;999.90;;;;;;;11.25;100.00;98643.75;4991713;28;20488;-73
2022/10/19 04:08:17;;;;;;;1999.90;999.90;;;;;;;11.24;100.00;98642.13;4991122;28;20078;-74
2022/10/19 04:10:42;;;;;;;1999.90;999.90;;;;;;;11.29;100.00;98639.34;4966951;28;20506;-73
2022/10/19 04:13:08;;;;;;;1999.90;999.90;;;;;;;11.30;100.00;98643.75;4966905;28;20041;-73
2022/10/19 04:15:33;;;;;;;1999.90;999.90;;;;;;;11.27;100.00;98642.38;4969723;28;20089;-74
2022/10/19 04:17:58;;;;;;;1999.90;999.90;;;;;;;11.22;100.00;98647.06;4952336;29;20118;-73
2022/10/19 04:20:24;;;;;;;1999.90;999.90;;;;;;;11.20;100.00;98652.81;4952244;29;20015;-74
2022/10/19 04:22:52;;;;;;;1999.90;999.90;;;;;;;11.20;100.00;98657.47;4952115;29;20033;-73
2022/10/19 04:25:17;;;;;;;1999.90;999.90;;;;;;;11.20;100.00;98647.34;4952224;29;20039;-74
2022/10/19 04:27:42;;;;;;;1999.90;999.90;;;;;;;11.24;100.00;98648.41;4953521;28;20091;-73
2022/10/19 04:30:08;;;;;;;1999.90;999.90;;;;;;;11.22;100.00;98649.78;4971376;28;20117;-72
2022/10/19 04:32:33;;;;;;;1999.90;999.90;;;;;;;11.22;100.00;98649.78;4971227;28;20034;-73
2022/10/19 04:34:59;;;;;;;1999.90;999.90;;;;;;;11.15;100.00;98638.34;4972100;28;20038;-73
2022/10/19 04:37:24;;;;;;;1999.90;999.90;;;;;;;11.24;100.00;98655.81;4975492;28;20038;-73
2022/10/19 04:39:49;;;;;;;1999.90;999.90;;;;;;;11.25;100.00;98661.00;4975362;28;20161;-73
2022/10/19 04:42:17;;;;;;;1999.90;999.90;;;;;;;11.19;100.00;98658.56;4975302;28;20035;-73
2022/10/19 04:44:45;;;;;;;1999.90;999.90;;;;;;;11.16;100.00;98656.41;4975357;28;20081;-74
2022/10/19 04:47:14;;;;;;;1999.90;999.90;;;;;;;11.15;100.00;98660.25;4975060;28;20031;-74
2022/10/19 04:49:39;;;;;;;1999.90;999.90;;;;;;;11.11;100.00;98660.00;4985603;28;20501;-73
2022/10/19 04:52:05;;;;;;;1999.90;999.90;;;;;;;11.10;100.00;98652.88;4994115;28;20109;-73
2022/10/19 04:54:30;;;;;;;1999.90;999.90;;;;;;;11.17;100.00;98663.53;4994452;28;20035;-74
2022/10/19 04:56:55;;;;;;;1999.90;999.90;;;;;;;11.17;100.00;98666.25;4994151;28;20032;-73
2022/10/19 04:59:24;;;;;;;1999.90;999.90;;;;;;;11.18;100.00;98665.97;4957583;28;20023;-74
2022/10/19 05:01:49;;;;;;;1999.90;999.90;;;;;;;11.00;100.00;98646.63;4991220;28;20038;-72
2022/10/19 05:04:14;;;;;;;1999.90;999.90;;;;;;;10.95;100.00;98650.22;4993830;28;20134;-74
2022/10/19 05:06:40;;;;;;;1999.90;999.90;;;;;;;10.94;100.00;98653.22;4977928;28;20041;-73
2022/10/19 05:09:05;;;;;;;1999.90;999.90;;;;;;;10.82;100.00;98644.50;4978558;28;20054;-72
2022/10/19 05:11:30;;;;;;;1999.90;999.90;;;;;;;10.75;100.00;98648.38;4976957;28;20031;-73
2022/10/19 05:13:56;;;;;;;1999.90;999.90;;;;;;;10.91;100.00;98642.81;4974894;28;20041;-73
2022/10/19 05:16:22;;;;;;;1999.90;999.90;;;;;;;10.97;100.00;98653.47;4974831;28;20026;-73
2022/10/19 05:18:55;;;;;;;1999.90;999.90;;;;;;;11.01;100.00;98653.75;4975073;28;20109;-72
2022/10/19 05:21:21;;;;;;;1999.90;999.90;;;;;;;10.99;100.00;98653.22;4974707;28;20031;-74
2022/10/19 05:23:50;;;;;;;1999.90;999.90;;;;;;;10.94;100.00;98647.75;4971936;28;20389;-74
2022/10/19 05:26:18;;;;;;;1999.90;999.90;;;;;;;11.04;100.00;98647.69;4974245;28;20517;-75
2022/10/19 05:28:55;;;;;;;1999.90;999.90;;;;;;;10.99;100.00;98653.22;4974340;28;20031;-74
2022/10/19 05:31:25;;;;;;;1999.90;999.90;;;;;;;11.02;100.00;98649.91;4974766;28;20034;-74
2022/10/19 05:33:51;;;;;;;1999.90;999.90;;;;;;;10.95;100.00;98646.66;4970005;28;20111;-73
2022/10/19 05:36:25;;;;;;;1999.90;999.90;;;;;;;10.99;100.00;98655.94;4978885;28;20035;-74
2022/10/19 05:38:51;;;;;;;1999.90;999.90;;;;;;;11.04;100.00;98658.66;4974862;28;20018;-74
2022/10/19 05:41:18;;;;;;;1999.90;999.90;;;;;;;11.07;100.00;98660.81;4972903;28;20126;-72
2022/10/19 05:43:44;;;;;;;1999.90;999.90;;;;;;;10.99;100.00;98653.22;4973015;28;20046;-72
2022/10/19 05:46:13;;;;;;;1999.90;999.90;;;;;;;11.02;100.00;98663.59;4972189;28;20054;-72
2022/10/19 05:48:40;;;;;;;1999.90;999.90;;;;;;;11.18;100.00;98654.22;4972321;28;20039;-72
2022/10/19 05:51:07;;;;;;;1999.90;999.90;;;;;;;11.21;100.00;98664.59;4973298;28;20022;-71
2022/10/19 05:53:33;;;;;;;1999.90;999.90;;;;;;;11.21;100.00;98659.91;4974435;28;20488;-75
2022/10/19 05:55:59;;;;;;;1999.90;999.90;;;;;;;11.25;100.00;98658.25;4973779;28;20420;-73
2022/10/19 05:58:24;;;;;;;1999.90;999.90;;;;;;;11.26;100.00;98661.81;4966046;28;20030;-72
2022/10/19 06:00:55;;;;;;;1999.90;999.90;;;;;;;11.30;100.00;98660.16;4964888;28;20035;-74
2022/10/19 06:03:24;;;;;;;1999.90;999.90;;;;;;;11.39;100.00;98663.94;4973744;28;20033;-72
2022/10/19 06:05:50;;;;;;;1999.90;999.90;;;;;;;11.43;100.00;98672.44;4955573;28;20531;-73
2022/10/19 06:08:16;;;;;;;1999.90;999.90;;;;;;;11.36;100.00;98664.50;4953917;29;20383;-73
2022/10/19 06:10:45;;;;;;;1999.90;999.90;;;;;;;11.33;100.00;98667.81;4954286;29;20028;-73
2022/10/19 06:13:12;;;;;;;1999.90;999.90;;;;;;;11.26;100.00;98675.53;4954118;29;20035;-73
2022/10/19 06:15:39;;;;;;;1999.90;999.90;;;;;;;11.25;100.00;98663.75;4954113;29;20042;-72
2022/10/19 06:18:09;;;;;;;1999.90;999.90;;;;;;;11.35;100.00;98686.69;4972691;28;20406;-72
2022/10/19 06:20:36;;;;;;;1999.90;999.90;;;;;;;11.38;100.00;98676.00;4973213;28;20019;-73
2022/10/19 06:23:01;;;;;;;1999.90;999.90;;;;;;;11.46;100.00;98672.69;4973623;28;20113;-72
2022/10/19 06:25:29;;;;;;;1999.90;999.90;;;;;;;11.57;100.00;98676.97;4973462;28;20133;-73
2022/10/19 06:27:54;;;;;;;1999.90;999.90;;;;;;;11.56;100.00;98680.81;4973245;28;20049;-72
2022/10/19 06:30:20;;;;;;;1999.90;999.90;;;;;;;11.58;100.00;98686.03;4973628;28;20027;-73
2022/10/19 06:32:45;;;;;;;1999.90;999.90;;;;;;;11.57;100.00;98687.13;4973102;28;20018;-72
2022/10/19 06:35:10;;;;;;;1999.90;999.90;;;;;;;11.59;100.00;98699.44;4987749;28;20432;-73
2022/10/19 06:37:38;;;;;;;1999.90;999.90;;;;;;;11.67;100.00;98707.06;4977575;28;20440;-72
2022/10/19 06:40:04;;;;;;;1999.90;999.90;;;;;;;11.65;100.00;98703.78;4976581;28;20059;-74
2022/10/19 06:42:29;;;;;;;1999.90;999.90;;;;;;;11.67;100.00;98715.28;4983251;28;20050;-73
2022/10/19 06:44:55;;;;;;;1999.90;999.90;;;;;;;11.67;100.00;98712.53;4979458;28;20476;-73
2022/10/19 06:47:20;;;;;;;1999.90;999.90;;;;;;;11.72;100.00;98711.72;4978160;28;20039;-73
2022/10/19 06:49:45;;;;;;;1999.90;999.90;;;;;;;11.78;100.00;98714.13;4981385;28;20073;-73
2022/10/19 06:52:11;;;;;;;1999.90;999.90;;;;;;;11.93;100.00;98704.19;4975785;28;20034;-73
2022/10/19 06:54:36;;;;;;;1999.90;999.90;;;;;;;11.95;100.00;98713.75;4978482;28;20042;-74
2022/10/19 06:57:04;;;;;;;1999.90;999.90;;;;;;;12.05;100.00;98723.81;4972448;28;20089;-73
2022/10/19 06:59:29;;;;;;;1999.90;999.90;;;;;;;12.04;100.00;98716.69;4982620;28;20044;-75
2022/10/19 07:01:55;;;;;;;1999.90;999.90;;;;;;;12.11;100.00;98711.72;4980606;28;20480;-73
2022/10/19 07:04:20;;;;;;;1999.90;999.90;;;;;;;12.11;100.00;98722.69;4981367;28;20444;-73
2022/10/19 07:06:45;;;;;;;1999.90;999.90;;;;;;;12.09;100.00;98714.72;4980629;28;20121;-73
2022/10/19 07:09:10;;;;;;;1999.90;999.90;;;;;;;12.12;100.00;98727.06;4977439;28;20123;-73
2022/10/19 07:11:36;;;;;;;1999.90;999.90;;;;;;;12.08;100.00;98729.56;4973658;28;20085;-73
2022/10/19 07:14:02;;;;;;;1999.90;999.90;;;;;;;12.05;100.00;98723.81;4980779;28;20113;-73
2022/10/19 07:16:28;;;;;;;1999.90;999.90;;;;;;;12.12;100.00;98725.13;4980230;28;20034;-73
2022/10/19 07:18:55;;;;;;;1999.90;999.90;;;;;;;12.14;100.00;98722.09;4979680;28;20027;-74
2022/10/19 07:21:24;;;;;;;1999.90;999.90;;;;;;;12.10;100.00;98732.81;4982914;28;20480;-73
2022/10/19 07:23:50;;;;;;;1999.90;999.90;;;;;;;12.01;100.00;98725.50;4981998;28;20064;-74
2022/10/19 07:26:20;;;;;;;1999.90;999.90;;;;;;;11.99;100.00;98728.53;4972910;28;20047;-74
2022/10/19 07:28:46;;;;;;;1999.90;999.90;;;;;;;12.03;100.00;98734.28;4977363;28;20499;-73
2022/10/19 07:31:14;;;;;;;1999.90;999.90;;;;;;;11.71;100.00;98734.75;4978240;28;20104;-73
2022/10/19 07:33:39;;;;;;;1999.90;999.90;;;;;;;11.93;100.00;98728.84;4982670;28;20361;-74
2022/10/19 07:36:08;;;;;;;1999.90;999.90;;;;;;;12.06;100.00;98737.25;4974298;28;20034;-73
2022/10/19 07:38:34;;;;;;;1999.90;999.90;;;;;;;12.09;100.00;98741.34;4975815;28;20035;-72
2022/10/19 07:41:09;;;;;;;1999.90;999.90;;;;;;;12.18;100.00;98736.91;4976148;28;20491;-74
2022/10/19 07:43:35;;;;;;;1999.90;999.90;;;;;;;12.28;100.00;98745.03;4978288;28;20023;-74
2022/10/19 07:46:03;;;;;;;1999.90;999.90;;;;;;;12.35;100.00;98751.81;4977682;28;20023;-74
2022/10/19 07:48:28;;;;;;;1999.90;999.90;;;;;;;11.96;100.00;98744.75;4989791;28;20026;-74
2022/10/19 07:50:53;;;;;;;1999.90;999.90;;;;;;;11.95;100.00;98740.34;4975080;28;20041;-73
2022/10/19 07:53:19;;;;;;;1999.90;999.90;;;;;;;12.14;100.00;98749.53;4980294;28;20063;-75
2022/10/19 07:55:44;;;;;;;1999.90;999.90;;;;;;;12.20;100.00;98748.38;4980168;28;20033;-74
2022/10/19 07:58:10;;;;;;;1999.90;999.90;;;;;;;12.20;100.00;98742.91;4979672;28;20052;-74
2022/10/19 08:00:36;;;;;;;1999.90;999.90;;;;;;;12.12;100.00;98746.28;4980878;28;20402;-74
2022/10/19 08:03:02;;;;;;;1999.90;999.90;;;;;;;12.39;100.00;98746.59;4971497;28;20030;-72
2022/10/19 08:05:27;;;;;;;1999.90;999.90;;;;;;;12.53;100.00;98746.75;4964709;28;20038;-74
2022/10/19 08:07:53;;;;;;;1999.90;999.90;;;;;;;12.51;100.00;98744.28;4955541;28;20468;-73
2022/10/19 08:10:18;;;;;;;1999.90;999.90;;;;;;;12.54;100.00;98753.84;4950980;29;20433;-75
2022/10/19 08:12:43;;;;;;;1999.90;999.90;;;;;;;12.60;100.00;98759.00;4951668;29;20054;-74
2022/10/19 08:15:09;;;;;;;1999.90;999.90;;;;;;;12.58;100.00;98753.00;4951648;29;20512;-73
2022/10/19 08:17:35;;;;;;;1999.90;999.90;;;;;;;12.74;100.00;98754.50;4951630;29;20448;-74
2022/10/19 08:20:02;;;;;;;1999.90;999.90;;;;;;;12.72;100.00;98755.88;4950316;29;20035;-74
2022/10/19 08:22:28;;;;;;;1999.90;999.90;;;;;;;12.76;100.00;98754.19;4951949;29;20545;-73
2022/10/19 08:24:53;;;;;;;1999.90;999.90;;;;;;;12.71;100.00;98746.84;4952407;29;20031;-74
2022/10/19 08:27:19;;;;;;;1999.90;999.90;;;;;;;12.80;100.00;98747.84;4952555;29;20071;-74
2022/10/19 08:29:45;;;;;;;1999.90;999.90;;;;;;;12.70;100.00;98752.63;4952225;29;20483;-75
2022/10/19 08:32:10;;;;;;;1999.90;999.90;;;;;;;12.80;100.00;98747.84;4952281;29;20035;-73
2022/10/19 08:34:35;;;;;;;1999.90;999.90;;;;;;;12.96;100.00;98755.94;4951044;28;20102;-72
2022/10/19 08:37:01;;;;;;;1999.90;999.90;;;;;;;13.02;100.00;98747.34;4947645;28;20032;-73
2022/10/19 08:39:27;;;;;;;1999.90;999.90;;;;;;;13.12;100.00;98760.19;4952463;29;20035;-74
2022/10/19 08:41:59;;;;;;;1999.90;999.90;;;;;;;12.94;100.00;98753.47;4952291;29;20453;-73
2022/10/19 08:44:51;;;;;;;1999.90;999.90;;;;;;;12.84;100.00;98754.38;4952035;29;20031;-73
2022/10/19 08:47:22;;;;;;;1999.90;999.90;;;;;;;13.22;100.00;98743.56;4952106;29;20445;-73
2022/10/19 08:49:47;;;;;;;1999.90;999.90;;;;;;;13.35;100.00;98748.34;4952218;29;20484;-72
2022/10/19 08:52:21;;;;;;;1999.90;999.90;;;;;;;13.51;100.00;98743.47;4952269;28;20032;-73
2022/10/19 08:55:07;;;;;;;1999.90;999.90;;;;;;;13.70;100.00;98747.88;4952246;29;20114;-73
2022/10/19 08:57:45;;;;;;;1999.90;999.90;;;;;;;13.75;100.00;98747.03;4952313;29;20131;-74
2022/10/19 09:00:41;;;;;;;1999.90;999.90;;;;;;;13.77;100.00;98742.84;4952422;29;20059;-73
2022/10/19 09:03:29;;;;;;;1999.90;999.90;;;;;;;13.87;100.00;98744.63;4952443;29;20126;-73
2022/10/19 09:06:20;;;;;;;1999.90;999.90;;;;;;;13.99;100.00;98741.44;4952456;29;20059;-73
2022/10/19 09:08:47;;;;;;;1999.90;999.90;;;;;;;13.88;100.00;98747.06;4952021;29;20168;-72
2022/10/19 09:11:14;;;;;;;1999.90;999.90;;;;;;;13.85;100.00;98746.84;4952292;28;20054;-72
2022/10/19 09:13:43;;;;;;;1999.90;999.90;;;;;;;14.05;100.00;98745.75;4951986;29;20035;-73
2022/10/19 09:16:14;;;;;;;1999.90;999.90;;;;;;;14.22;100.00;98740.53;4951843;28;20034;-73
2022/10/19 09:18:42;;;;;;;1999.90;999.90;;;;;;;14.56;100.00;98746.59;4951879;29;20031;-73
2022/10/19 09:21:22;;;;;;;1999.90;999.90;;;;;;;14.54;100.00;98743.31;4952905;28;20057;-73
2022/10/19 09:24:01;;;;;;;1999.90;999.90;;;;;;;14.84;100.00;98742.78;4955543;28;20034;-73
2022/10/19 09:26:29;;;;;;;1999.90;999.90;;;;;;;14.93;100.00;98740.13;4955135;29;20027;-73
2022/10/19 09:29:05;;;;;;;1999.90;999.90;;;;;;;15.47;100.00;98739.34;4955282;29;20114;-74
2022/10/19 09:31:38;;;;;;;1999.90;999.90;;;;;;;15.81;100.00;98736.97;4955147;29;20078;-74
2022/10/19 09:34:21;;;;;;;1999.90;999.90;;;;;;;15.83;100.00;98740.22;4955080;28;20035;-73
2022/10/19 09:36:52;;;;;;;1999.90;999.90;;;;;;;16.14;100.00;98728.47;4955624;29;20024;-74
2022/10/19 09:39:19;;;;;;;1999.90;999.90;;;;;;;16.71;100.00;98737.84;4955245;29;20062;-73
2022/10/19 09:41:48;;;;;;;1999.90;999.90;;;;;;;17.39;100.00;98740.09;4955701;29;20037;-74
2022/10/19 09:44:14;;;;;;;1999.90;999.90;;;;;;;18.45;100.00;98739.66;4955907;29;20039;-73
2022/10/19 09:46:51;;;;;;;1999.90;999.90;;;;;;;18.91;100.00;98739.75;4956006;29;20027;-73
2022/10/19 09:49:18;;;;;;;1999.90;999.90;;;;;;;20.46;100.00;98750.00;4956865;28;20035;-74
2022/10/19 09:51:49;;;;;;;1999.90;999.90;;;;;;;19.87;100.00;98747.31;4955742;29;20034;-73
2022/10/19 09:54:30;;;;;;;1999.90;999.90;;;;;;;21.26;100.00;98752.16;4961083;28;20074;-74
2022/10/19 09:56:56;;;;;;;1999.90;999.90;;;;;;;22.58;86.76;98751.53;4958809;29;20520;-74
2022/10/19 09:59:23;;;;;;;1999.90;999.90;;;;;;;22.53;83.58;98757.34;4955121;29;20031;-74
2022/10/19 10:02:09;;;;;;;1999.90;999.90;;;;;;;22.79;79.61;98754.97;4954739;29;20039;-73
2022/10/19 10:04:35;;;;;;;1999.90;999.90;;;;;;;22.52;79.90;98755.75;4954531;28;20031;-74
2022/10/19 10:07:02;;;;;;;1999.90;999.90;;;;;;;22.62;78.64;98767.19;4954850;29;21528;-74
2022/10/19 10:09:28;;;;;;;1999.90;999.90;;;;;;;23.31;74.04;98761.16;4954544;29;20039;-75
2022/10/19 10:11:57;;;;;;;1999.90;999.90;;;;;;;22.72;75.47;98760.34;4953315;29;20027;-73
2022/10/19 10:14:27;;;;;;;1999.90;999.90;;;;;;;23.02;72.47;98761.59;4955151;28;20019;-74
2022/10/19 10:17:00;;;;;;;1999.90;999.90;;;;;;;22.76;73.91;98750.09;4958499;29;20027;-73
2022/10/19 10:19:28;;;;;;;1999.90;999.90;;;;;;;23.16;71.79;98756.38;4956482;29;20436;-74
2022/10/19 10:21:56;;;;;;;1999.90;999.90;;;;;;;22.20;75.03;98750.03;4954452;28;20039;-74
2022/10/19 10:24:30;;;;;;;1999.90;999.90;;;;;;;22.79;73.39;98746.59;4954553;29;20106;-74
2022/10/19 10:27:00;;;;;;;1999.90;999.90;;;;;;;23.60;70.22;98745.97;4954056;29;20042;-74
2022/10/19 10:29:28;;;;;;;1999.90;999.90;;;;;;;24.49;66.26;98743.25;4954127;29;20027;-74
2022/10/19 10:32:15;;;;;;;1999.90;999.90;;;;;;;23.94;66.85;98744.38;4954175;29;20113;-75
2022/10/19 10:34:45;;;;;;;1999.90;999.90;;;;;;;24.03;68.17;98742.19;4953707;28;20034;-73
2022/10/19 10:37:22;;;;;;;1999.90;999.90;;;;;;;23.71;69.38;98738.66;4954372;29;20397;-74
2022/10/19 10:39:51;;;;;;;1999.90;999.90;;;;;;;24.03;67.85;98736.59;4954030;29;20019;-73
2022/10/19 10:42:29;;;;;;;1999.90;999.90;;;;;;;23.77;67.55;98730.81;4954019;29;20548;-74
2022/10/19 10:44:55;;;;;;;1999.90;999.90;;;;;;;23.33;69.68;98724.50;4952650;29;20062;-72
2022/10/19 10:47:21;;;;;;;1999.90;999.90;;;;;;;22.45;73.42;98722.06;4954086;28;20067;-73
2022/10/19 10:50:04;;;;;;;1999.90;999.90;;;;;;;21.41;78.12;98717.22;4953775;29;20035;-73
2022/10/19 10:52:30;;;;;;;1999.90;999.90;;;;;;;22.45;74.74;98713.72;4953915;29;20019;-73
2022/10/19 10:55:16;;;;;;;1999.90;999.90;;;;;;;23.76;68.81;98721.63;4953647;29;20023;-73